Time;durP1;ratioP1;P1;durP2;ratioP2;P2;SDS_P1;SDS_P2;PMS_P1;PMS_P2;Temp;Humidity;BMP_temperature;BMP_pressure;BME280_temperature;BME280_humidity;BME280_pressure;Samples;Min_cycle;Max_cycle;Signal;HPM_P1;HPM_P2
2022/03/01 00:00:47;;;;;;;12.95;11.20;;;;;;;;;;4978292;28;20052;-78
2022/03/01 00:03:13;;;;;;;13.10;11.57;;;;;;;;;;4973229;28;20137;-78
2022/03/01 00:05:42;;;;;;;12.80;11.50;;;;;;;;;;4982121;28;20094;-78
2022/03/01 00:08:08;;;;;;;12.45;11.15;;;;;;;;;;4981112;28;20502;-78
2022/03/01 00:10:34;;;;;;;12.60;11.30;;;;;;;;;;5004252;28;20049;-78
2022/03/01 00:13:00;;;;;;;13.48;11.18;;;;;;;;;;4979776;28;20043;-77
2022/03/01 00:15:29;;;;;;;14.00;10.55;;;;;;;;;;4976377;28;20483;-78
2022/03/01 00:17:56;;;;;;;12.35;10.93;;;;;;;;;;4982542;28;20074;-78
2022/03/01 00:20:22;;;;;;;11.38;10.27;;;;;;;;;;4991185;28;20142;-78
2022/03/01 00:22:50;;;;;;;11.95;10.75;;;;;;;;;;4979738;28;20045;-78
2022/03/01 00:25:17;;;;;;;12.30;10.65;;;;;;;;;;4987273;28;20577;-78
2022/03/01 00:27:43;;;;;;;12.02;10.73;;;;;;;;;;4975249;28;20055;-77
2022/03/01 00:30:10;;;;;;;11.52;10.32;;;;;;;;;;4976163;28;20053;-78
2022/03/01 00:32:36;;;;;;;12.95;10.98;;;;;;;;;;4973771;28;20057;-78
2022/03/01 00:35:02;;;;;;;11.45;10.25;;;;;;;;;;4981651;28;20046;-78
2022/03/01 00:37:28;;;;;;;11.90;10.55;;;;;;;;;;4995098;28;20410;-78
2022/03/01 00:39:54;;;;;;;11.60;10.27;;;;;;;;;;4979543;28;20039;-78
2022/03/01 00:42:20;;;;;;;12.93;10.80;;;;;;;;;;4985159;28;20046;-78
2022/03/01 00:44:46;;;;;;;11.75;10.18;;;;;;;;;;4976339;28;20046;-78
2022/03/01 00:47:12;;;;;;;11.65;10.45;;;;;;;;;;4976452;28;20483;-78
2022/03/01 00:49:38;;;;;;;11.73;10.52;;;;;;;;;;4973482;28;20474;-78
2022/03/01 00:52:04;;;;;;;11.32;10.07;;;;;;;;;;4967732;28;20479;-77
2022/03/01 00:54:30;;;;;;;11.55;10.32;;;;;;;;;;4966066;28;20051;-78
2022/03/01 00:56:56;;;;;;;11.77;10.57;;;;;;;;;;4968321;28;20043;-78
2022/03/01 00:59:23;;;;;;;12.18;10.82;;;;;;;;;;4977348;28;20043;-78
2022/03/01 01:01:49;;;;;;;11.27;10.10;;;;;;;;;;4981408;28;20053;-78
2022/03/01 01:04:15;;;;;;;11.32;10.13;;;;;;;;;;4966930;28;20442;-78
2022/03/01 01:06:41;;;;;;;11.95;10.40;;;;;;;;;;4965864;28;20050;-78
2022/03/01 01:09:08;;;;;;;12.15;10.40;;;;;;;;;;4964747;28;20047;-77
2022/03/01 01:11:34;;;;;;;13.52;10.32;;;;;;;;;;4969723;28;20039;-78
2022/03/01 01:14:00;;;;;;;11.40;10.20;;;;;;;;;;4994229;28;20050;-78
2022/03/01 01:16:26;;;;;;;12.23;10.43;;;;;;;;;;4979571;28;20383;-78
2022/03/01 01:18:52;;;;;;;12.38;10.02;;;;;;;;;;4978851;28;20792;-78
2022/03/01 01:21:18;;;;;;;13.00;10.65;;;;;;;;;;4975060;28;20446;-78
2022/03/01 01:23:44;;;;;;;12.10;10.10;;;;;;;;;;4976172;28;20085;-78
2022/03/01 01:26:15;;;;;;;11.48;10.27;;;;;;;;;;4983709;28;20047;-78
2022/03/01 01:28:41;;;;;;;11.52;10.32;;;;;;;;;;4967265;28;20046;-78
2022/03/01 01:31:07;;;;;;;11.27;9.82;;;;;;;;;;4966734;28;20047;-78
2022/03/01 01:33:33;;;;;;;10.90;9.77;;;;;;;;;;4975194;28;20069;-78
2022/03/01 01:35:59;;;;;;;11.73;10.43;;;;;;;;;;4974733;28;20100;-78
2022/03/01 01:38:25;;;;;;;11.32;10.13;;;;;;;;;;4971114;28;20604;-78
2022/03/01 01:40:51;;;;;;;12.32;10.70;;;;;;;;;;4994485;28;20050;-78
2022/03/01 01:43:17;;;;;;;11.73;10.50;;;;;;;;;;4979369;28;20055;-78
2022/03/01 01:45:43;;;;;;;11.75;10.55;;;;;;;;;;4971951;28;20046;-78
2022/03/01 01:48:09;;;;;;;11.52;10.25;;;;;;;;;;4972604;28;20608;-78
2022/03/01 01:50:35;;;;;;;12.52;10.40;;;;;;;;;;4972704;28;20051;-78
2022/03/01 01:53:02;;;;;;;12.35;10.13;;;;;;;;;;4989641;28;20050;-78
2022/03/01 01:55:28;;;;;;;12.98;10.50;;;;;;;;;;4971859;28;20046;-78
2022/03/01 01:57:55;;;;;;;12.75;10.77;;;;;;;;;;4966836;28;20043;-78
2022/03/01 02:00:22;;;;;;;11.02;9.80;;;;;;;;;;4968749;28;20446;-78
2022/03/01 02:02:48;;;;;;;11.30;10.10;;;;;;;;;;4971025;28;20067;-78
2022/03/01 02:05:14;;;;;;;13.05;10.30;;;;;;;;;;5000419;28;20123;-78
2022/03/01 02:14:25;;;;;;;12.43;10.45;;;;;;;;;;4971272;28;20042;-78
2022/03/01 02:16:51;;;;;;;12.20;10.40;;;;;;;;;;4971022;28;20049;-78
2022/03/01 02:19:18;;;;;;;11.50;10.30;;;;;;;;;;4977952;28;20054;-79
2022/03/01 02:21:49;;;;;;;11.57;10.30;;;;;;;;;;4973504;28;20135;-78
2022/03/01 02:24:15;;;;;;;12.02;10.30;;;;;;;;;;4977916;28;20388;-77
2022/03/01 02:26:42;;;;;;;11.27;9.57;;;;;;;;;;4975123;28;20042;-78
2022/03/01 02:29:08;;;;;;;11.07;9.88;;;;;;;;;;4965642;28;20043;-77
2022/03/01 02:31:34;;;;;;;12.55;10.48;;;;;;;;;;4972857;28;20049;-77
2022/03/01 02:34:00;;;;;;;11.52;10.32;;;;;;;;;;4984433;28;20162;-78
2022/03/01 02:36:26;;;;;;;11.43;10.23;;;;;;;;;;4981024;28;20054;-77
2022/03/01 02:38:52;;;;;;;12.25;10.43;;;;;;;;;;4990656;28;20053;-78
2022/03/01 02:41:18;;;;;;;12.45;10.93;;;;;;;;;;4993613;28;20047;-77
2022/03/01 02:43:45;;;;;;;11.43;10.20;;;;;;;;;;4981096;28;20046;-77
2022/03/01 02:46:11;;;;;;;12.88;11.05;;;;;;;;;;4969206;28;20050;-76
2022/03/01 02:48:37;;;;;;;12.43;10.13;;;;;;;;;;4973043;28;20102;-77
2022/03/01 02:51:03;;;;;;;12.50;10.40;;;;;;;;;;4986607;28;20046;-78
2022/03/01 02:53:31;;;;;;;11.93;10.27;;;;;;;;;;4975323;28;20050;-77
2022/03/01 02:55:57;;;;;;;12.25;11.05;;;;;;;;;;4991177;28;20050;-77
2022/03/01 02:58:23;;;;;;;12.32;10.75;;;;;;;;;;5002913;28;20051;-77
2022/03/01 03:00:49;;;;;;;11.52;10.27;;;;;;;;;;4976845;28;20049;-77
2022/03/01 03:03:15;;;;;;;13.05;10.20;;;;;;;;;;4995888;28;20047;-77
2022/03/01 03:05:41;;;;;;;14.38;10.57;;;;;;;;;;4981458;28;20042;-77
2022/03/01 03:08:07;;;;;;;10.88;9.77;;;;;;;;;;4977695;28;20479;-77
2022/03/01 03:10:34;;;;;;;13.40;10.73;;;;;;;;;;4969873;28;20495;-77
2022/03/01 03:13:01;;;;;;;10.90;9.65;;;;;;;;;;4971794;28;20070;-77
2022/03/01 03:15:27;;;;;;;10.93;9.80;;;;;;;;;;4973239;28;20058;-77
2022/03/01 03:17:53;;;;;;;11.45;10.35;;;;;;;;;;4971417;28;20058;-77
2022/03/01 03:20:19;;;;;;;11.48;10.27;;;;;;;;;;4977542;28;20055;-77
2022/03/01 03:22:45;;;;;;;12.75;11.02;;;;;;;;;;4971630;28;20106;-77
2022/03/01 03:25:11;;;;;;;11.85;10.65;;;;;;;;;;4975931;28;20054;-76
2022/03/01 03:27:37;;;;;;;13.07;10.80;;;;;;;;;;4988951;28;20442;-77
2022/03/01 03:30:04;;;;;;;11.70;10.50;;;;;;;;;;4971552;28;20049;-77
2022/03/01 03:32:30;;;;;;;12.05;10.43;;;;;;;;;;4977207;28;20535;-77
2022/03/01 03:34:56;;;;;;;11.73;10.52;;;;;;;;;;4996497;28;20042;-77
2022/03/01 03:37:22;;;;;;;12.55;10.90;;;;;;;;;;4992345;28;20057;-78
2022/03/01 03:39:48;;;;;;;11.88;10.32;;;;;;;;;;4977588;28;20070;-77
2022/03/01 03:42:14;;;;;;;12.60;10.93;;;;;;;;;;4969555;28;20047;-77
2022/03/01 03:44:40;;;;;;;12.68;11.32;;;;;;;;;;5000532;28;20124;-77
2022/03/01 03:47:06;;;;;;;12.63;11.32;;;;;;;;;;4974520;28;20070;-77
2022/03/01 03:49:32;;;;;;;12.57;10.77;;;;;;;;;;4961825;28;20046;-77
2022/03/01 03:52:01;;;;;;;12.77;10.73;;;;;;;;;;4979673;28;20039;-77
2022/03/01 03:54:27;;;;;;;12.32;10.35;;;;;;;;;;4974411;28;20046;-77
2022/03/01 03:56:53;;;;;;;12.15;10.43;;;;;;;;;;4981164;28;20042;-76
2022/03/01 03:59:20;;;;;;;13.15;11.18;;;;;;;;;;4970709;28;20755;-77
2022/03/01 04:01:45;;;;;;;12.20;10.90;;;;;;;;;;4973572;28;20054;-76
2022/03/01 04:04:11;;;;;;;11.75;10.52;;;;;;;;;;4978286;28;20042;-77
2022/03/01 04:06:38;;;;;;;12.35;11.05;;;;;;;;;;4982275;28;20038;-77
2022/03/01 04:09:04;;;;;;;11.82;10.55;;;;;;;;;;4994820;28;20061;-77
2022/03/01 04:11:30;;;;;;;12.15;10.73;;;;;;;;;;4974893;28;20059;-78
2022/03/01 04:13:57;;;;;;;12.57;10.20;;;;;;;;;;4996956;28;20411;-77
2022/03/01 04:16:23;;;;;;;11.70;10.52;;;;;;;;;;4975429;28;20038;-77
2022/03/01 04:18:50;;;;;;;11.95;10.55;;;;;;;;;;4967804;28;20051;-78
2022/03/01 04:21:16;;;;;;;12.15;10.90;;;;;;;;;;4981863;28;20133;-77
2022/03/01 04:23:43;;;;;;;13.50;10.85;;;;;;;;;;4976669;28;20043;-77
2022/03/01 04:26:09;;;;;;;12.57;10.68;;;;;;;;;;4997686;28;20065;-76
2022/03/01 04:28:35;;;;;;;13.50;10.70;;;;;;;;;;4969642;28;20043;-76
2022/03/01 04:31:01;;;;;;;12.10;10.85;;;;;;;;;;4995410;28;20038;-77
2022/03/01 04:33:27;;;;;;;13.18;11.38;;;;;;;;;;4971284;28;20050;-78
2022/03/01 04:35:54;;;;;;;13.05;11.75;;;;;;;;;;4975299;28;20054;-77
2022/03/01 04:38:20;;;;;;;12.95;11.45;;;;;;;;;;4974709;28;20403;-77
2022/03/01 04:40:47;;;;;;;13.13;11.43;;;;;;;;;;4972829;28;20065;-77
2022/03/01 04:43:16;;;;;;;12.23;11.02;;;;;;;;;;4972292;28;20051;-77
2022/03/01 04:45:42;;;;;;;13.50;11.60;;;;;;;;;;4969410;28;20050;-77
2022/03/01 04:48:08;;;;;;;14.27;11.35;;;;;;;;;;4987340;28;20132;-77
2022/03/01 04:50:35;;;;;;;13.07;11.18;;;;;;;;;;4986784;28;20181;-76
2022/03/01 04:53:01;;;;;;;13.32;11.93;;;;;;;;;;4975580;28;20039;-77
2022/03/01 04:55:27;;;;;;;12.80;11.50;;;;;;;;;;4974332;28;20057;-77
2022/03/01 04:57:53;;;;;;;12.70;11.40;;;;;;;;;;4977589;28;20042;-77
2022/03/01 05:00:19;;;;;;;13.13;11.63;;;;;;;;;;4984671;28;20060;-77
2022/03/01 05:02:46;;;;;;;11.98;10.77;;;;;;;;;;4995971;28;20047;-78
2022/03/01 05:05:12;;;;;;;13.52;11.88;;;;;;;;;;4971463;28;20050;-77
2022/03/01 05:07:39;;;;;;;11.82;10.63;;;;;;;;;;4976489;28;20384;-78
2022/03/01 05:10:06;;;;;;;13.07;11.68;;;;;;;;;;4990815;28;20046;-77
2022/03/01 05:12:32;;;;;;;12.63;11.32;;;;;;;;;;4970031;28;20069;-78
2022/03/01 05:14:58;;;;;;;12.52;10.98;;;;;;;;;;4972034;28;20043;-78
2022/03/01 05:17:24;;;;;;;13.23;11.25;;;;;;;;;;4980335;28;20502;-77
2022/03/01 05:19:50;;;;;;;13.13;11.50;;;;;;;;;;4972629;28;20089;-78
2022/03/01 05:22:16;;;;;;;14.27;11.45;;;;;;;;;;4971302;28;20090;-78
2022/03/01 05:24:42;;;;;;;12.70;11.07;;;;;;;;;;4970351;28;20047;-77
2022/03/01 05:27:08;;;;;;;13.18;11.45;;;;;;;;;;4982738;28;20039;-77
2022/03/01 05:29:34;;;;;;;12.75;11.18;;;;;;;;;;4969211;28;20058;-78
2022/03/01 05:32:01;;;;;;;13.05;11.70;;;;;;;;;;5004086;28;20133;-77
2022/03/01 05:34:28;;;;;;;12.95;11.50;;;;;;;;;;4986927;28;20530;-77
2022/03/01 05:36:54;;;;;;;13.70;11.50;;;;;;;;;;4972680;28;20526;-77
2022/03/01 05:39:20;;;;;;;12.57;11.27;;;;;;;;;;4972343;28;20105;-77
2022/03/01 05:41:46;;;;;;;12.95;11.63;;;;;;;;;;4973593;28;20042;-77
2022/03/01 05:44:12;;;;;;;12.68;11.38;;;;;;;;;;4969787;28;20107;-77
2022/03/01 05:46:38;;;;;;;11.95;10.75;;;;;;;;;;4973448;28;20039;-78
2022/03/01 05:49:04;;;;;;;13.70;11.80;;;;;;;;;;4966141;28;20196;-77
2022/03/01 05:51:30;;;;;;;12.98;11.63;;;;;;;;;;4971670;28;20882;-77
2022/03/01 05:53:56;;;;;;;13.80;11.50;;;;;;;;;;4971026;28;20520;-78
2022/03/01 05:56:22;;;;;;;13.93;12.52;;;;;;;;;;4973778;28;20050;-77
2022/03/01 05:58:48;;;;;;;12.50;11.20;;;;;;;;;;4969089;28;20051;-77
2022/03/01 06:01:14;;;;;;;12.40;11.10;;;;;;;;;;4973686;28;20051;-77
2022/03/01 06:03:43;;;;;;;12.48;11.18;;;;;;;;;;4972865;28;20046;-77
2022/03/01 06:06:09;;;;;;;12.35;11.07;;;;;;;;;;4973385;28;20144;-78
2022/03/01 06:08:35;;;;;;;12.13;10.82;;;;;;;;;;4977677;28;20050;-77
2022/03/01 06:11:01;;;;;;;12.88;11.57;;;;;;;;;;4971866;28;20062;-78
2022/03/01 06:13:27;;;;;;;13.38;11.88;;;;;;;;;;4971579;28;20057;-78
2022/03/01 06:15:53;;;;;;;14.80;12.55;;;;;;;;;;4972027;28;20046;-78
2022/03/01 06:18:19;;;;;;;13.90;11.70;;;;;;;;;;4969193;28;20055;-77
2022/03/01 06:20:46;;;;;;;13.57;12.27;;;;;;;;;;4978553;28;20055;-78
2022/03/01 06:23:12;;;;;;;15.20;12.15;;;;;;;;;;4969695;28;20582;-77
2022/03/01 06:25:38;;;;;;;14.15;12.10;;;;;;;;;;4970151;28;20446;-77
2022/03/01 06:28:04;;;;;;;12.55;11.25;;;;;;;;;;5001719;28;20356;-78
2022/03/01 06:30:30;;;;;;;13.88;11.52;;;;;;;;;;4969288;28;20491;-77
2022/03/01 06:32:56;;;;;;;14.80;11.60;;;;;;;;;;4969526;28;20306;-79
2022/03/01 06:35:22;;;;;;;13.75;12.35;;;;;;;;;;4969484;28;20079;-77
2022/03/01 06:37:48;;;;;;;15.55;11.70;;;;;;;;;;4970812;28;20089;-77
2022/03/01 06:40:14;;;;;;;13.43;12.02;;;;;;;;;;4969870;28;20410;-77
2022/03/01 06:42:40;;;;;;;13.20;11.55;;;;;;;;;;4971568;28;20049;-77
2022/03/01 06:45:06;;;;;;;13.52;11.82;;;;;;;;;;4966785;28;20436;-76
2022/03/01 06:47:33;;;;;;;12.90;11.43;;;;;;;;;;4967626;28;20047;-77
2022/03/01 06:50:00;;;;;;;13.35;11.95;;;;;;;;;;4969735;28;20039;-77
2022/03/01 06:52:26;;;;;;;13.30;11.90;;;;;;;;;;4962059;28;20058;-77
2022/03/01 06:54:52;;;;;;;14.43;11.55;;;;;;;;;;4962538;28;20081;-76
2022/03/01 06:57:18;;;;;;;12.48;11.13;;;;;;;;;;4963842;28;20483;-77
2022/03/01 06:59:45;;;;;;;13.73;11.52;;;;;;;;;;4963714;28;20047;-77
2022/03/01 07:02:11;;;;;;;12.77;11.48;;;;;;;;;;4964738;28;20544;-77
2022/03/01 07:04:37;;;;;;;13.52;12.13;;;;;;;;;;4966031;28;20048;-77
2022/03/01 07:07:05;;;;;;;15.13;12.18;;;;;;;;;;4963021;28;20079;-78
2022/03/01 07:09:31;;;;;;;12.52;11.23;;;;;;;;;;4964274;28;20047;-77
2022/03/01 07:11:57;;;;;;;13.77;11.45;;;;;;;;;;4970714;28;20378;-77
2022/03/01 07:14:23;;;;;;;13.50;11.95;;;;;;;;;;4965824;28;20486;-77
2022/03/01 07:16:49;;;;;;;13.27;11.57;;;;;;;;;;4963209;28;20049;-77
2022/03/01 07:19:16;;;;;;;12.77;11.40;;;;;;;;;;4961953;28;20073;-78
2022/03/01 07:21:42;;;;;;;13.25;11.85;;;;;;;;;;4962531;28;20483;-77
2022/03/01 07:24:08;;;;;;;12.85;11.40;;;;;;;;;;4966636;28;20035;-77
2022/03/01 07:26:34;;;;;;;13.02;11.38;;;;;;;;;;4972300;28;20043;-77
2022/03/01 07:29:00;;;;;;;13.50;12.07;;;;;;;;;;4974140;28;20031;-77
2022/03/01 07:31:26;;;;;;;12.55;10.93;;;;;;;;;;4974676;28;20055;-77
2022/03/01 07:33:52;;;;;;;12.85;11.43;;;;;;;;;;4978125;28;20402;-77
2022/03/01 07:36:18;;;;;;;13.32;11.73;;;;;;;;;;4982737;28;20079;-77
2022/03/01 07:38:44;;;;;;;13.50;11.95;;;;;;;;;;4981903;28;20097;-77
2022/03/01 07:41:10;;;;;;;13.70;11.38;;;;;;;;;;4981992;28;20055;-77
2022/03/01 07:43:36;;;;;;;14.77;11.93;;;;;;;;;;4977662;28;20047;-77
2022/03/01 07:46:03;;;;;;;13.32;11.35;;;;;;;;;;4990077;28;20049;-77
2022/03/01 07:48:29;;;;;;;11.95;10.65;;;;;;;;;;4981691;28;20470;-77
2022/03/01 07:50:55;;;;;;;14.98;11.38;;;;;;;;;;4982144;28;20455;-77
2022/03/01 07:53:21;;;;;;;12.95;11.18;;;;;;;;;;4985495;28;20042;-77
2022/03/01 07:55:47;;;;;;;12.55;11.25;;;;;;;;;;5016390;28;20418;-78
2022/03/01 07:58:13;;;;;;;11.85;10.65;;;;;;;;;;4984272;28;20054;-77
2022/03/01 08:00:39;;;;;;;13.07;11.68;;;;;;;;;;4972662;28;20054;-76
2022/03/01 08:03:05;;;;;;;14.00;11.70;;;;;;;;;;5005408;28;20384;-78
2022/03/01 08:05:31;;;;;;;13.05;11.65;;;;;;;;;;5001771;28;20475;-77
2022/03/01 08:07:57;;;;;;;12.63;10.93;;;;;;;;;;4974642;28;20533;-77
2022/03/01 08:10:23;;;;;;;14.30;11.80;;;;;;;;;;4974199;28;20082;-77
2022/03/01 08:12:50;;;;;;;13.68;11.60;;;;;;;;;;5006484;28;20046;-77
2022/03/01 08:15:16;;;;;;;12.52;11.23;;;;;;;;;;5005226;28;20047;-77
2022/03/01 08:17:53;;;;;;;13.20;11.43;;;;;;;;;;4974054;28;20049;-77
2022/03/01 08:20:19;;;;;;;14.95;11.90;;;;;;;;;;4973690;28;20410;-77
2022/03/01 08:22:46;;;;;;;13.40;12.00;;;;;;;;;;4974847;28;20047;-77
2022/03/01 08:25:12;;;;;;;15.35;11.88;;;;;;;;;;5005169;28;20051;-77
2022/03/01 08:27:38;;;;;;;12.85;11.52;;;;;;;;;;4974392;28;20155;-77
2022/03/01 08:30:05;;;;;;;14.48;11.77;;;;;;;;;;4974917;28;20049;-77
2022/03/01 08:32:31;;;;;;;13.77;12.20;;;;;;;;;;5004789;28;20101;-77
2022/03/01 08:34:57;;;;;;;13.77;12.30;;;;;;;;;;4968906;28;20051;-77
2022/03/01 08:37:23;;;;;;;12.88;11.55;;;;;;;;;;5003164;28;20035;-77
2022/03/01 08:39:49;;;;;;;13.80;12.38;;;;;;;;;;4972024;28;20039;-77
2022/03/01 08:42:15;;;;;;;13.50;12.10;;;;;;;;;;4973736;28;20129;-77
2022/03/01 08:44:41;;;;;;;13.65;12.23;;;;;;;;;;5005327;28;20456;-77
2022/03/01 08:47:07;;;;;;;13.32;11.93;;;;;;;;;;5001472;28;20058;-77
2022/03/01 08:49:33;;;;;;;13.35;11.82;;;;;;;;;;4974172;28;20121;-77
2022/03/01 08:51:59;;;;;;;12.73;11.40;;;;;;;;;;5005858;28;20082;-77
2022/03/01 08:54:25;;;;;;;12.88;11.45;;;;;;;;;;4971480;28;20042;-78
2022/03/01 08:56:51;;;;;;;14.50;12.95;;;;;;;;;;4988296;28;20051;-78
2022/03/01 08:59:17;;;;;;;13.20;11.85;;;;;;;;;;4972515;28;20434;-76
2022/03/01 09:01:43;;;;;;;13.80;12.40;;;;;;;;;;4973191;28;20078;-77
2022/03/01 09:04:10;;;;;;;13.77;12.27;;;;;;;;;;5002398;28;20043;-76
2022/03/01 09:06:38;;;;;;;14.50;11.98;;;;;;;;;;4971840;28;20130;-76
2022/03/01 09:09:05;;;;;;;13.35;11.95;;;;;;;;;;4973886;28;20340;-78
2022/03/01 09:11:31;;;;;;;13.00;11.65;;;;;;;;;;4971917;28;20177;-78
2022/03/01 09:13:57;;;;;;;14.02;12.50;;;;;;;;;;5004986;28;20388;-77
2022/03/01 09:16:23;;;;;;;13.02;11.73;;;;;;;;;;4973293;28;20039;-77
2022/03/01 09:18:49;;;;;;;13.38;12.00;;;;;;;;;;5004832;28;20057;-78
2022/03/01 09:21:15;;;;;;;14.65;11.93;;;;;;;;;;4972014;28;20058;-78
2022/03/01 09:23:42;;;;;;;13.35;11.95;;;;;;;;;;4973068;28;20450;-78
2022/03/01 09:26:08;;;;;;;12.60;11.30;;;;;;;;;;5005324;28;20043;-77
2022/03/01 09:28:34;;;;;;;13.50;11.77;;;;;;;;;;4972943;28;20066;-77
2022/03/01 09:31:00;;;;;;;15.55;13.55;;;;;;;;;;5004799;28;20141;-78
2022/03/01 09:33:26;;;;;;;14.48;12.85;;;;;;;;;;4968780;28;20676;-77
2022/03/01 09:35:52;;;;;;;15.07;13.27;;;;;;;;;;4971452;28;20045;-78
2022/03/01 09:38:18;;;;;;;14.23;12.73;;;;;;;;;;5004373;28;20089;-78
2022/03/01 09:40:47;;;;;;;13.90;12.50;;;;;;;;;;5004364;28;20046;-78
2022/03/01 09:43:13;;;;;;;13.95;12.45;;;;;;;;;;5003196;28;20479;-78
2022/03/01 09:45:39;;;;;;;13.35;11.95;;;;;;;;;;5004708;28;20058;-77
2022/03/01 09:48:05;;;;;;;13.40;12.00;;;;;;;;;;5003678;28;20047;-78
2022/03/01 09:50:31;;;;;;;13.02;11.73;;;;;;;;;;4972560;28;20045;-78
2022/03/01 09:52:59;;;;;;;13.85;12.25;;;;;;;;;;4980240;28;20090;-78
2022/03/01 09:55:26;;;;;;;14.95;13.35;;;;;;;;;;4971712;28;20043;-77
2022/03/01 09:57:52;;;;;;;15.23;12.90;;;;;;;;;;5004350;28;20159;-78
2022/03/01 10:00:18;;;;;;;13.93;12.45;;;;;;;;;;4973034;28;20047;-78
2022/03/01 10:02:45;;;;;;;13.80;12.35;;;;;;;;;;4972626;28;20042;-78
2022/03/01 10:05:12;;;;;;;14.07;12.68;;;;;;;;;;5004088;28;20491;-78
2022/03/01 10:07:42;;;;;;;14.23;12.73;;;;;;;;;;4972454;28;20049;-78
2022/03/01 10:10:12;;;;;;;13.98;12.57;;;;;;;;;;4972683;28;20043;-78
2022/03/01 10:12:39;;;;;;;13.70;12.30;;;;;;;;;;4971558;28;20053;-78
2022/03/01 10:15:06;;;;;;;14.57;12.40;;;;;;;;;;4972762;28;20078;-78
2022/03/01 10:17:35;;;;;;;15.32;13.73;;;;;;;;;;4971920;28;20046;-78
2022/03/01 10:20:07;;;;;;;14.10;12.65;;;;;;;;;;4971686;28;20145;-78
2022/03/01 10:22:34;;;;;;;14.55;13.05;;;;;;;;;;4973152;28;20126;-77
2022/03/01 10:25:07;;;;;;;14.98;12.88;;;;;;;;;;4964796;28;20050;-77
2022/03/01 10:27:34;;;;;;;14.52;13.02;;;;;;;;;;4972346;28;20058;-78
2022/03/01 10:30:00;;;;;;;14.18;12.68;;;;;;;;;;4972197;28;20042;-78
2022/03/01 10:32:26;;;;;;;14.60;13.13;;;;;;;;;;4970410;28;20122;-78
2022/03/01 10:35:03;;;;;;;14.73;13.23;;;;;;;;;;5003622;28;20436;-78
2022/03/01 10:37:30;;;;;;;13.90;12.40;;;;;;;;;;4972230;28;20065;-78
2022/03/01 10:40:15;;;;;;;14.13;12.68;;;;;;;;;;4972143;28;20138;-78
2022/03/01 10:42:41;;;;;;;14.05;12.55;;;;;;;;;;4971403;28;20055;-78
2022/03/01 10:45:09;;;;;;;14.32;12.88;;;;;;;;;;4971113;28;20039;-77
2022/03/01 10:47:35;;;;;;;15.40;13.80;;;;;;;;;;4971109;28;20050;-77
2022/03/01 10:50:02;;;;;;;15.93;13.52;;;;;;;;;;4972306;28;20495;-78
2022/03/01 10:52:32;;;;;;;14.40;12.90;;;;;;;;;;5001770;28;20051;-78
2022/03/01 10:54:58;;;;;;;14.00;12.60;;;;;;;;;;4972461;28;20054;-78
2022/03/01 10:57:24;;;;;;;17.05;13.57;;;;;;;;;;4971743;28;20371;-77
2022/03/01 10:59:51;;;;;;;14.75;13.23;;;;;;;;;;4970735;28;20129;-78
2022/03/01 11:02:17;;;;;;;15.07;13.48;;;;;;;;;;4972111;28;20046;-77
2022/03/01 11:04:43;;;;;;;14.77;13.27;;;;;;;;;;4968521;28;20038;-77
2022/03/01 11:07:10;;;;;;;14.45;13.05;;;;;;;;;;4976590;28;20503;-77
2022/03/01 11:09:36;;;;;;;15.68;14.13;;;;;;;;;;5002733;28;20049;-77
2022/03/01 11:12:03;;;;;;;14.75;13.00;;;;;;;;;;5003031;28;20113;-78
2022/03/01 11:14:39;;;;;;;14.68;13.18;;;;;;;;;;5002064;28;20487;-77
2022/03/01 11:17:22;;;;;;;15.82;13.95;;;;;;;;;;4972854;28;20043;-77
2022/03/01 11:19:51;;;;;;;15.13;13.52;;;;;;;;;;4965643;28;20058;-78
2022/03/01 11:22:19;;;;;;;13.95;12.45;;;;;;;;;;4970406;28;20074;-77
2022/03/01 11:24:46;;;;;;;14.65;13.15;;;;;;;;;;4971795;28;20133;-77
2022/03/01 11:27:12;;;;;;;15.25;13.38;;;;;;;;;;4971403;28;20396;-77
2022/03/01 11:29:39;;;;;;;15.25;13.65;;;;;;;;;;4971177;28;20122;-73
2022/03/01 11:32:11;;;;;;;14.63;13.00;;;;;;;;;;4964712;28;20137;-77
2022/03/01 11:34:37;;;;;;;14.32;12.82;;;;;;;;;;4996132;28;20142;-77
2022/03/01 11:37:03;;;;;;;14.15;12.68;;;;;;;;;;4969933;28;20134;-77
2022/03/01 11:39:30;;;;;;;14.50;12.82;;;;;;;;;;4968673;28;20042;-77
2022/03/01 11:42:07;;;;;;;15.15;13.40;;;;;;;;;;4968619;28;20051;-78
2022/03/01 11:44:55;;;;;;;14.05;12.55;;;;;;;;;;4982404;28;20506;-78
2022/03/01 11:47:31;;;;;;;14.68;12.90;;;;;;;;;;4971906;28;20043;-78
2022/03/01 11:50:09;;;;;;;15.23;13.65;;;;;;;;;;4969639;28;20049;-77
2022/03/01 11:52:48;;;;;;;14.57;13.18;;;;;;;;;;4967839;28;20047;-77
2022/03/01 11:55:14;;;;;;;14.32;12.93;;;;;;;;;;5001617;28;20054;-78
2022/03/01 11:57:40;;;;;;;14.43;12.93;;;;;;;;;;4970154;28;20884;-78
2022/03/01 12:00:06;;;;;;;15.35;13.85;;;;;;;;;;5002868;28;20193;-78
2022/03/01 12:02:33;;;;;;;14.82;13.32;;;;;;;;;;4970250;28;20050;-78
2022/03/01 12:05:01;;;;;;;14.93;13.43;;;;;;;;;;4980151;28;20035;-78
2022/03/01 12:07:31;;;;;;;14.60;13.10;;;;;;;;;;4979355;28;20042;-79
2022/03/01 12:10:05;;;;;;;14.98;13.48;;;;;;;;;;5008695;28;20086;-78
2022/03/01 12:12:32;;;;;;;15.48;13.88;;;;;;;;;;4981353;28;20061;-78
2022/03/01 12:14:58;;;;;;;14.73;13.15;;;;;;;;;;5013904;28;20430;-78
2022/03/01 12:17:25;;;;;;;14.50;13.00;;;;;;;;;;5011034;28;20075;-78
2022/03/01 12:20:01;;;;;;;15.27;13.77;;;;;;;;;;4977210;28;20054;-79
2022/03/01 12:22:30;;;;;;;14.27;12.68;;;;;;;;;;4984622;28;20054;-79
2022/03/01 12:24:59;;;;;;;15.30;13.70;;;;;;;;;;4979131;28;20474;-79
2022/03/01 12:27:29;;;;;;;13.98;12.57;;;;;;;;;;4977534;28;20226;-78
2022/03/01 12:29:56;;;;;;;16.10;14.32;;;;;;;;;;4980147;28;20533;-79
2022/03/01 12:32:22;;;;;;;16.00;14.40;;;;;;;;;;4980944;28;20082;-79
2022/03/01 12:34:48;;;;;;;15.00;13.50;;;;;;;;;;4973897;28;20043;-77
2022/03/01 12:37:14;;;;;;;15.05;13.55;;;;;;;;;;4983238;28;20054;-77
2022/03/01 12:39:40;;;;;;;15.38;13.77;;;;;;;;;;4982045;28;20100;-77
2022/03/01 12:42:07;;;;;;;15.15;13.50;;;;;;;;;;5008368;28;20046;-76
2022/03/01 12:44:34;;;;;;;15.40;13.77;;;;;;;;;;4984520;28;20042;-77
2022/03/01 12:47:01;;;;;;;14.82;13.27;;;;;;;;;;4978305;28;20463;-77
2022/03/01 12:49:27;;;;;;;16.08;14.02;;;;;;;;;;4973131;28;20427;-77
2022/03/01 12:51:54;;;;;;;16.05;14.45;;;;;;;;;;4981266;28;20054;-78
2022/03/01 12:54:25;;;;;;;15.75;14.20;;;;;;;;;;4974169;28;20471;-78
2022/03/01 12:56:52;;;;;;;15.80;13.50;;;;;;;;;;4975438;28;20054;-78
2022/03/01 12:59:20;;;;;;;15.02;13.63;;;;;;;;;;4979435;28;20043;-78
2022/03/01 13:01:47;;;;;;;16.25;14.65;;;;;;;;;;4973711;28;20042;-78
2022/03/01 13:04:13;;;;;;;15.57;14.07;;;;;;;;;;4973676;28;20051;-79
2022/03/01 13:06:40;;;;;;;15.57;13.98;;;;;;;;;;4970279;28;20035;-78
2022/03/01 13:09:06;;;;;;;15.85;14.35;;;;;;;;;;5004246;28;20046;-77
2022/03/01 13:11:32;;;;;;;15.50;14.00;;;;;;;;;;4973872;28;20039;-78
2022/03/01 13:13:59;;;;;;;15.88;14.27;;;;;;;;;;4972709;28;20045;-78
2022/03/01 13:16:27;;;;;;;15.35;13.85;;;;;;;;;;4978597;28;20045;-78
2022/03/01 13:18:55;;;;;;;14.38;12.95;;;;;;;;;;4978251;28;20372;-79
2022/03/01 13:21:25;;;;;;;16.77;14.25;;;;;;;;;;4972774;28;20498;-78
2022/03/01 13:23:53;;;;;;;16.88;15.15;;;;;;;;;;5004845;28;20046;-77
2022/03/01 13:26:19;;;;;;;16.45;14.85;;;;;;;;;;4973247;28;20050;-78
2022/03/01 13:28:45;;;;;;;15.90;14.38;;;;;;;;;;4972770;28;20137;-77
2022/03/01 13:31:20;;;;;;;16.92;15.23;;;;;;;;;;4970441;28;20066;-78
2022/03/01 13:33:56;;;;;;;16.83;15.13;;;;;;;;;;4973344;28;20039;-78
2022/03/01 13:36:24;;;;;;;16.38;14.77;;;;;;;;;;4973321;28;20491;-78
2022/03/01 13:38:58;;;;;;;16.45;14.80;;;;;;;;;;4973044;28;20078;-78
2022/03/01 13:41:28;;;;;;;16.02;14.32;;;;;;;;;;4972373;28;20055;-78
2022/03/01 13:43:54;;;;;;;15.90;14.40;;;;;;;;;;4973610;28;20034;-78
2022/03/01 13:46:20;;;;;;;17.40;15.80;;;;;;;;;;4972921;28;20042;-78
2022/03/01 13:48:46;;;;;;;16.80;15.07;;;;;;;;;;4971910;28;20126;-77
2022/03/01 13:51:12;;;;;;;17.13;15.52;;;;;;;;;;4986976;28;20062;-78
2022/03/01 13:53:38;;;;;;;15.98;14.38;;;;;;;;;;4972405;28;20038;-77
2022/03/01 13:56:05;;;;;;;16.83;15.13;;;;;;;;;;5003007;28;20047;-78
2022/03/01 13:58:31;;;;;;;17.23;15.52;;;;;;;;;;5003962;28;20092;-78
2022/03/01 14:01:03;;;;;;;17.67;15.93;;;;;;;;;;4972162;28;20051;-77
2022/03/01 14:03:30;;;;;;;16.77;15.07;;;;;;;;;;4967965;28;20117;-75
2022/03/01 14:06:01;;;;;;;16.88;15.18;;;;;;;;;;4972999;28;20050;-77
2022/03/01 14:08:28;;;;;;;17.40;15.63;;;;;;;;;;4971583;28;20097;-78
2022/03/01 14:10:54;;;;;;;17.00;15.20;;;;;;;;;;5003557;28;20101;-77
2022/03/01 14:13:28;;;;;;;16.92;15.15;;;;;;;;;;5014425;28;20042;-77
2022/03/01 14:15:54;;;;;;;;;;;;;;;;;;4975060;28;20046;-77
2022/03/01 14:18:21;;;;;;;16.10;14.50;;;;;;;;;;4972323;28;19922;-77
2022/03/01 14:20:50;;;;;;;16.27;14.68;;;;;;;;;;4968507;28;20055;-77
2022/03/01 14:23:18;;;;;;;15.60;14.10;;;;;;;;;;4970910;28;20487;-77